createdAt,value
2022-07-28T00:01:55.944Z,14.50
2022-07-28T00:04:26.570Z,14.50
2022-07-28T00:06:55.933Z,14.50
2022-07-28T00:09:24.815Z,14.40
2022-07-28T00:11:55.110Z,14.50
2022-07-28T00:14:26.187Z,14.50
2022-07-28T00:16:55.597Z,14.50
2022-07-28T00:19:24.428Z,14.50
2022-07-28T00:21:53.203Z,14.50
2022-07-28T00:24:27.407Z,14.40
2022-07-28T00:26:57.609Z,14.40
2022-07-28T00:29:49.856Z,14.40
2022-07-28T00:32:20.925Z,14.30
2022-07-28T00:34:48.956Z,14.30
2022-07-28T00:37:21.397Z,14.40
2022-07-28T00:39:48.986Z,14.30
2022-07-28T00:42:22.514Z,14.30
2022-07-28T00:44:50.306Z,14.30
2022-07-28T00:47:20.141Z,14.30
2022-07-28T00:49:48.404Z,14.20
2022-07-28T00:52:18.415Z,14.20
2022-07-28T00:54:46.610Z,14.20
2022-07-28T00:57:14.344Z,14.20
2022-07-28T00:59:42.377Z,14.20
2022-07-28T01:02:10.477Z,14.20
2022-07-28T01:04:38.233Z,14.10
2022-07-28T01:07:42.606Z,14.20
2022-07-28T01:11:13.244Z,14.20
2022-07-28T01:14:08.991Z,14.20
2022-07-28T01:17:02.517Z,14.20
2022-07-28T01:20:25.868Z,14.10
2022-07-28T01:23:32.567Z,14.10
2022-07-28T01:26:55.720Z,14.10
2022-07-28T01:30:10.795Z,14.10
2022-07-28T01:33:07.488Z,13.90
2022-07-28T01:35:52.851Z,13.90
2022-07-28T01:38:26.478Z,13.90
2022-07-28T01:40:58.617Z,13.80
2022-07-28T01:43:33.506Z,13.80
2022-07-28T01:46:03.969Z,13.70
2022-07-28T01:48:36.370Z,13.80
2022-07-28T01:51:09.347Z,13.70
2022-07-28T01:53:41.355Z,13.70
2022-07-28T01:56:14.666Z,13.70
2022-07-28T01:58:45.954Z,13.70
2022-07-28T02:01:18.684Z,13.70
2022-07-28T02:03:50.304Z,13.70
2022-07-28T02:06:22.641Z,13.60
2022-07-28T02:08:57.023Z,13.60
2022-07-28T02:11:41.410Z,13.60
2022-07-28T02:14:29.988Z,13.60
2022-07-28T02:17:13.250Z,13.50
2022-07-28T02:19:46.309Z,13.40
2022-07-28T02:22:17.858Z,13.30
2022-07-28T02:24:48.665Z,13.30
2022-07-28T02:27:31.686Z,13.30
2022-07-28T02:30:17.740Z,13.20
2022-07-28T02:33:03.945Z,13.10
2022-07-28T02:35:58.815Z,13.40
2022-07-28T02:38:43.702Z,13.30
2022-07-28T02:41:29.544Z,13.30
2022-07-28T02:44:14.834Z,13.40
2022-07-28T02:46:55.099Z,13.30
2022-07-28T02:49:33.047Z,13.30
2022-07-28T02:52:07.060Z,13.20
2022-07-28T02:54:37.367Z,13.20
2022-07-28T02:57:06.994Z,13.20
2022-07-28T02:59:37.297Z,13.30
2022-07-28T03:02:07.401Z,13.30
2022-07-28T03:04:54.843Z,13.10
2022-07-28T03:07:22.533Z,13.10
2022-07-28T03:09:50.068Z,13.10
2022-07-28T03:12:17.717Z,13.10
2022-07-28T03:14:45.438Z,13.10
2022-07-28T03:17:13.252Z,13.20
2022-07-28T03:19:40.828Z,13.10
2022-07-28T03:22:10.418Z,13.20
2022-07-28T03:24:48.853Z,13.10
2022-07-28T03:27:34.923Z,13.20
2022-07-28T03:30:21.088Z,13.00
2022-07-28T03:32:59.565Z,12.90
2022-07-28T03:35:29.429Z,13.00
2022-07-28T03:38:17.813Z,12.90
2022-07-28T03:40:49.317Z,12.90
2022-07-28T03:43:26.329Z,12.90
2022-07-28T03:45:54.021Z,12.90
2022-07-28T03:48:24.800Z,12.90
2022-07-28T03:50:52.356Z,12.90
2022-07-28T03:53:29.819Z,12.90
2022-07-28T03:55:58.164Z,12.80
2022-07-28T03:58:29.215Z,12.90
2022-07-28T04:00:58.596Z,12.90
2022-07-28T04:03:42.244Z,12.80
2022-07-28T04:06:16.044Z,12.80
2022-07-28T04:08:44.764Z,12.80
2022-07-28T04:11:12.772Z,12.80
2022-07-28T04:13:40.544Z,12.80
2022-07-28T04:16:08.106Z,12.80
2022-07-28T04:18:35.968Z,12.80
2022-07-28T04:21:04.942Z,12.80
2022-07-28T04:23:34.304Z,12.80
2022-07-28T04:26:01.933Z,12.80
2022-07-28T04:28:29.503Z,12.80
2022-07-28T04:30:57.184Z,12.80
2022-07-28T04:33:25.096Z,12.90
2022-07-28T04:35:53.807Z,13.00
2022-07-28T04:38:21.354Z,12.90
2022-07-28T04:40:49.993Z,13.00
2022-07-28T04:43:18.003Z,13.10
2022-07-28T04:45:54.232Z,13.20
2022-07-28T04:48:24.570Z,13.20
2022-07-28T04:50:53.342Z,13.20
2022-07-28T04:53:23.194Z,13.20
2022-07-28T04:55:53.510Z,13.30
2022-07-28T04:58:24.163Z,13.40
2022-07-28T05:00:52.787Z,13.40
2022-07-28T05:03:21.979Z,13.40
2022-07-28T05:05:54.699Z,13.40
2022-07-28T05:08:25.595Z,13.40
2022-07-28T05:10:56.989Z,13.40
2022-07-28T05:13:28.904Z,13.60
2022-07-28T05:16:02.704Z,13.70
2022-07-28T05:18:30.446Z,13.70
2022-07-28T05:20:58.865Z,13.90
2022-07-28T05:23:27.669Z,13.90
2022-07-28T05:25:56.206Z,14.00
2022-07-28T05:28:23.779Z,14.00
2022-07-28T05:30:51.431Z,14.10
2022-07-28T05:33:18.933Z,14.30
2022-07-28T05:36:00.157Z,14.30
2022-07-28T05:38:30.424Z,14.40
2022-07-28T05:41:00.203Z,14.60
2022-07-28T05:43:27.662Z,14.80
2022-07-28T05:45:55.191Z,15.00
2022-07-28T05:48:23.849Z,15.30
2022-07-28T05:50:51.844Z,15.60
2022-07-28T05:53:21.253Z,16.00
2022-07-28T05:55:57.728Z,16.80
2022-07-28T05:58:29.687Z,17.50
2022-07-28T06:01:02.368Z,18.10
2022-07-28T06:03:39.721Z,18.60
2022-07-28T06:06:15.828Z,18.40
2022-07-28T06:08:48.423Z,18.30
2022-07-28T06:11:21.671Z,18.10
2022-07-28T06:13:52.791Z,18.20
2022-07-28T06:16:23.330Z,18.50
2022-07-28T06:18:52.377Z,19.10
2022-07-28T06:21:24.519Z,19.80
2022-07-28T06:23:52.252Z,20.20
2022-07-28T06:26:23.540Z,20.90
2022-07-28T06:28:51.448Z,20.80
2022-07-28T06:31:19.051Z,20.90
2022-07-28T06:33:47.194Z,21.00
2022-07-28T06:36:15.097Z,21.10
2022-07-28T06:38:42.619Z,20.80
2022-07-28T06:41:10.136Z,20.20
2022-07-28T06:43:39.217Z,20.00
2022-07-28T06:46:07.747Z,20.50
2022-07-28T06:48:39.667Z,21.10
2022-07-28T06:51:07.404Z,21.60
2022-07-28T06:53:35.167Z,21.30
2022-07-28T06:56:06.811Z,21.40
2022-07-28T06:58:35.089Z,21.40
2022-07-28T07:01:07.769Z,21.70
2022-07-28T07:03:35.758Z,22.10
2022-07-28T07:06:03.548Z,21.80
2022-07-28T07:08:31.371Z,22.20
2022-07-28T07:10:59.080Z,22.20
2022-07-28T07:13:27.096Z,22.10
2022-07-28T07:15:55.304Z,22.40
2022-07-28T07:18:23.018Z,22.30
2022-07-28T07:20:50.456Z,22.00
2022-07-28T07:23:17.901Z,22.00
2022-07-28T07:25:45.498Z,22.40
2022-07-28T07:28:12.927Z,22.80
2022-07-28T07:30:40.488Z,22.50
2022-07-28T07:33:10.378Z,23.30
2022-07-28T07:35:38.839Z,23.00
2022-07-28T07:38:06.808Z,22.20
2022-07-28T07:40:34.755Z,22.00
2022-07-28T07:43:02.367Z,22.10
2022-07-28T07:45:29.893Z,22.00
2022-07-28T07:47:57.529Z,22.80
2022-07-28T07:50:25.133Z,22.80
2022-07-28T07:52:53.197Z,22.50
2022-07-28T07:55:21.280Z,22.20
2022-07-28T07:57:48.773Z,22.20
2022-07-28T08:00:29.079Z,22.10
2022-07-28T08:03:00.350Z,22.00
2022-07-28T08:05:35.742Z,22.70
2022-07-28T08:08:06.110Z,23.50
2022-07-28T08:10:37.291Z,23.20
2022-07-28T08:13:08.233Z,23.20
2022-07-28T08:15:36.247Z,23.30
2022-07-28T08:18:04.962Z,23.70
2022-07-28T08:20:33.193Z,24.10
2022-07-28T08:23:01.485Z,23.80
2022-07-28T08:25:28.967Z,24.60
2022-07-28T08:27:56.578Z,24.70
2022-07-28T08:30:27.525Z,24.70
2022-07-28T08:33:00.431Z,24.40
2022-07-28T08:35:35.801Z,24.40
2022-07-28T08:38:06.461Z,24.80
2022-07-28T08:40:40.939Z,24.50
2022-07-28T08:43:40.508Z,24.20
2022-07-28T08:46:09.299Z,23.90
2022-07-28T08:48:39.962Z,23.50
2022-07-28T08:51:12.958Z,23.20
2022-07-28T08:53:43.001Z,23.00
2022-07-28T08:56:16.837Z,22.80
2022-07-28T08:58:44.657Z,23.20
2022-07-28T09:01:13.751Z,23.60
2022-07-28T09:03:42.903Z,23.50
2022-07-28T09:06:11.193Z,23.60
2022-07-28T09:08:39.026Z,23.20
2022-07-28T09:11:08.277Z,23.50
2022-07-28T09:13:36.718Z,24.20
2022-07-28T09:16:07.519Z,24.50
2022-07-28T09:18:35.151Z,24.60
2022-07-28T09:21:02.861Z,24.40
2022-07-28T09:23:50.268Z,24.90
2022-07-28T09:26:18.950Z,24.70
2022-07-28T09:28:59.406Z,24.60
2022-07-28T09:31:30.696Z,23.80
2022-07-28T09:34:06.101Z,23.30
2022-07-28T09:36:42.223Z,23.30
2022-07-28T09:39:10.576Z,23.40
2022-07-28T09:41:56.321Z,23.70
2022-07-28T09:44:27.951Z,23.30
2022-07-28T09:46:58.741Z,23.50
2022-07-28T09:49:44.425Z,24.00
2022-07-28T09:52:12.456Z,24.20
2022-07-28T09:54:59.422Z,24.20
2022-07-28T09:57:31.585Z,24.40
2022-07-28T10:00:05.941Z,24.10
2022-07-28T10:02:35.122Z,23.80
2022-07-28T10:05:06.093Z,23.30
2022-07-28T10:07:47.901Z,23.60
2022-07-28T10:10:22.162Z,22.90
2022-07-28T10:12:50.337Z,22.50
2022-07-28T10:15:45.432Z,22.70
2022-07-28T10:18:18.425Z,22.90
2022-07-28T10:20:47.511Z,22.80
2022-07-28T10:23:18.080Z,22.80
2022-07-28T10:25:46.698Z,23.00
2022-07-28T10:28:23.064Z,22.70
2022-07-28T10:31:02.266Z,22.50
2022-07-28T10:33:33.449Z,22.60
2022-07-28T10:36:07.195Z,22.70
2022-07-28T10:38:37.648Z,22.70
2022-07-28T10:41:09.810Z,22.80
2022-07-28T10:43:42.585Z,23.00
2022-07-28T10:46:16.272Z,23.10
2022-07-28T10:48:45.777Z,22.90
2022-07-28T10:51:14.869Z,22.80
2022-07-28T10:54:24.781Z,22.60
2022-07-28T10:57:04.945Z,22.50
2022-07-28T11:00:24.513Z,22.70
2022-07-28T11:03:01.333Z,22.90
2022-07-28T11:05:41.103Z,23.20
2022-07-28T11:08:17.261Z,23.00
2022-07-28T11:11:00.704Z,22.80
2022-07-28T11:13:37.139Z,22.60
2022-07-28T11:16:14.743Z,22.60
2022-07-28T11:19:38.094Z,22.70
2022-07-28T11:22:16.096Z,22.60
2022-07-28T11:25:19.268Z,22.60
2022-07-28T11:27:57.653Z,22.40
2022-07-28T11:30:29.200Z,22.40
2022-07-28T11:33:03.334Z,22.70
2022-07-28T11:35:40.244Z,22.70
2022-07-28T11:38:12.410Z,22.70
2022-07-28T11:40:46.343Z,22.80
2022-07-28T11:43:35.442Z,22.90
2022-07-28T11:46:11.435Z,23.00
2022-07-28T11:48:45.322Z,23.00
2022-07-28T11:51:16.270Z,22.90
2022-07-28T11:53:53.560Z,22.90
2022-07-28T11:56:29.456Z,22.90
2022-07-28T11:59:08.796Z,23.20
2022-07-28T12:01:38.145Z,23.20
2022-07-28T12:04:14.673Z,23.20
2022-07-28T12:06:44.224Z,23.20
2022-07-28T12:09:23.450Z,23.30
2022-07-28T12:11:55.590Z,23.40
2022-07-28T12:14:24.520Z,23.60
2022-07-28T12:16:53.321Z,23.20
2022-07-28T12:19:22.761Z,23.10
2022-07-28T12:22:00.660Z,23.20
2022-07-28T12:24:46.029Z,23.30
2022-07-28T12:27:16.657Z,23.60
2022-07-28T12:29:57.404Z,23.70
2022-07-28T12:32:37.090Z,24.00
2022-07-28T12:35:06.667Z,24.00
2022-07-28T12:37:34.335Z,23.90
2022-07-28T12:40:03.743Z,23.90
2022-07-28T12:42:34.409Z,23.60
2022-07-28T12:45:04.873Z,23.60
2022-07-28T12:47:33.036Z,23.40
2022-07-28T12:50:21.085Z,23.30
2022-07-28T12:53:10.830Z,23.30
2022-07-28T12:55:44.005Z,23.40
2022-07-28T12:58:29.028Z,23.80
2022-07-28T13:00:57.268Z,23.90
2022-07-28T13:03:29.991Z,23.90
2022-07-28T13:06:10.435Z,24.00
2022-07-28T13:08:44.998Z,23.90
2022-07-28T13:11:42.760Z,24.00
2022-07-28T13:14:05.146Z,24.30
2022-07-28T13:16:34.418Z,24.30
2022-07-28T13:19:06.094Z,24.40
2022-07-28T13:21:57.335Z,24.40
2022-07-28T13:24:30.249Z,24.60
2022-07-28T13:26:59.972Z,24.70
2022-07-28T13:29:27.595Z,24.70
2022-07-28T13:31:55.791Z,24.60
2022-07-28T13:34:23.639Z,24.50
2022-07-28T13:36:52.676Z,24.50
2022-07-28T13:39:21.424Z,24.50
2022-07-28T13:41:58.613Z,24.50
2022-07-28T13:44:34.897Z,24.60
2022-07-28T13:47:06.759Z,24.60
2022-07-28T13:49:37.884Z,24.70
2022-07-28T13:52:13.024Z,24.90
2022-07-28T13:54:40.913Z,25.00
2022-07-28T13:57:11.922Z,24.70
2022-07-28T13:59:42.180Z,24.40
2022-07-28T14:02:14.851Z,24.50
2022-07-28T14:04:46.085Z,24.50
2022-07-28T14:07:20.940Z,24.60
2022-07-28T14:09:51.450Z,24.70
2022-07-28T14:12:19.702Z,24.80
2022-07-28T14:14:48.195Z,24.70
2022-07-28T14:20:15.562Z,24.70
2022-07-28T14:22:46.455Z,24.80
2022-07-28T14:25:21.200Z,24.80
2022-07-28T14:27:53.119Z,25.10
2022-07-28T14:30:28.032Z,25.00
2022-07-28T14:32:57.314Z,25.10
2022-07-28T14:35:26.247Z,25.20
2022-07-28T14:40:41.982Z,25.60
2022-07-28T14:43:10.299Z,25.50
2022-07-28T14:46:01.442Z,25.70
2022-07-28T14:48:26.441Z,25.80
2022-07-28T14:51:04.410Z,25.70
2022-07-28T14:53:32.252Z,25.60
2022-07-28T14:56:04.301Z,25.50
2022-07-28T14:58:31.852Z,25.30
2022-07-28T15:00:59.333Z,25.40
2022-07-28T15:03:35.764Z,25.40
2022-07-28T15:06:04.930Z,25.30
2022-07-28T15:08:32.650Z,25.30
2022-07-28T15:11:00.397Z,25.20
2022-07-28T15:13:28.602Z,25.20
2022-07-28T15:15:57.175Z,25.10
2022-07-28T15:18:25.430Z,24.90
2022-07-28T15:20:54.760Z,24.60
2022-07-28T15:23:23.425Z,24.90
2022-07-28T15:25:53.571Z,24.70
2022-07-28T15:28:21.593Z,24.70
2022-07-28T15:30:52.955Z,24.80
2022-07-28T15:33:21.422Z,24.80
2022-07-28T15:35:58.497Z,24.80
2022-07-28T15:38:31.746Z,24.80
2022-07-28T15:41:00.265Z,24.70
2022-07-28T15:43:30.832Z,24.80
2022-07-28T15:45:58.628Z,24.70
2022-07-28T15:48:27.309Z,24.80
2022-07-28T15:50:55.159Z,24.90
2022-07-28T15:53:23.452Z,25.20
2022-07-28T15:55:52.039Z,25.10
2022-07-28T15:58:22.633Z,25.10
2022-07-28T16:00:51.278Z,24.80
2022-07-28T16:03:20.421Z,24.90
2022-07-28T16:05:51.356Z,24.90
2022-07-28T16:08:23.297Z,24.90
2022-07-28T16:10:54.244Z,24.80
2022-07-28T16:13:32.164Z,24.90
2022-07-28T16:16:09.066Z,24.80
2022-07-28T16:18:41.315Z,24.80
2022-07-28T16:21:11.612Z,24.80
2022-07-28T16:23:43.041Z,24.60
2022-07-28T16:26:10.768Z,24.50
2022-07-28T16:28:38.306Z,24.40
2022-07-28T16:31:06.262Z,24.30
2022-07-28T16:33:34.551Z,24.20
2022-07-28T16:36:04.264Z,24.00
2022-07-28T16:38:31.946Z,24.10
2022-07-28T16:41:00.100Z,24.10
2022-07-28T16:43:27.876Z,23.90
2022-07-28T16:45:55.543Z,23.90
2022-07-28T16:48:23.195Z,23.70
2022-07-28T16:50:51.852Z,23.70
2022-07-28T16:53:19.455Z,23.70
2022-07-28T16:55:48.332Z,23.70
2022-07-28T16:58:18.128Z,23.70
2022-07-28T17:00:46.006Z,23.70
2022-07-28T17:03:14.161Z,23.90
2022-07-28T17:05:42.314Z,23.90
2022-07-28T17:08:10.368Z,23.80
2022-07-28T17:10:38.292Z,23.80
2022-07-28T17:13:05.940Z,23.70
2022-07-28T17:15:34.023Z,23.60
2022-07-28T17:18:02.466Z,23.60
2022-07-28T17:20:30.128Z,23.60
2022-07-28T17:22:58.600Z,23.60
2022-07-28T17:25:52.331Z,23.50
2022-07-28T17:28:15.417Z,23.50
2022-07-28T17:30:43.131Z,23.60
2022-07-28T17:33:12.386Z,23.50
2022-07-28T17:35:40.187Z,23.50
2022-07-28T17:38:09.625Z,23.40
2022-07-28T17:40:40.186Z,23.20
2022-07-28T17:43:08.875Z,23.20
2022-07-28T17:45:36.793Z,23.10
2022-07-28T17:48:05.590Z,23.00
2022-07-28T17:50:33.150Z,23.00
2022-07-28T17:53:01.850Z,22.90
2022-07-28T17:55:40.761Z,23.00
2022-07-28T17:58:32.409Z,22.90
2022-07-28T18:01:13.740Z,22.80
2022-07-28T18:03:58.094Z,22.80
2022-07-28T18:06:37.276Z,22.70
2022-07-28T18:09:12.141Z,22.70
2022-07-28T18:11:57.932Z,22.70
2022-07-28T18:14:30.871Z,22.60
2022-07-28T18:16:59.731Z,22.60
2022-07-28T18:19:29.046Z,22.60
2022-07-28T18:21:57.287Z,22.60
2022-07-28T18:24:25.123Z,22.60
2022-07-28T18:26:53.283Z,22.60
2022-07-28T18:29:22.262Z,22.50
2022-07-28T18:31:52.367Z,22.50
2022-07-28T18:34:24.744Z,22.40
2022-07-28T18:36:54.670Z,22.40
2022-07-28T18:39:23.149Z,22.40
2022-07-28T18:41:56.072Z,22.40
2022-07-28T18:44:27.293Z,22.40
2022-07-28T18:46:57.849Z,22.30
2022-07-28T18:49:26.175Z,22.30
2022-07-28T18:51:55.604Z,22.20
2022-07-28T18:54:27.238Z,22.10
2022-07-28T18:56:56.750Z,22.00
2022-07-28T18:59:24.873Z,22.00
2022-07-28T19:01:55.539Z,21.90
2022-07-28T19:04:24.280Z,22.00
2022-07-28T19:06:52.018Z,21.90
2022-07-28T19:09:20.603Z,21.90
2022-07-28T19:11:49.282Z,21.90
2022-07-28T19:14:18.192Z,21.80
2022-07-28T19:16:46.710Z,21.80
2022-07-28T19:19:15.266Z,21.70
2022-07-28T19:21:43.739Z,21.70
2022-07-28T19:24:15.004Z,21.60
2022-07-28T19:26:46.679Z,21.60
2022-07-28T19:29:14.460Z,21.50
2022-07-28T19:31:42.532Z,21.30
2022-07-28T19:34:10.788Z,21.20
2022-07-28T19:36:41.813Z,21.20
2022-07-28T19:39:10.005Z,21.10
2022-07-28T19:41:37.599Z,21.10
2022-07-28T19:44:05.744Z,21.20
2022-07-28T19:46:33.803Z,21.20
2022-07-28T19:49:01.585Z,21.30
2022-07-28T19:51:29.244Z,21.40
2022-07-28T19:53:58.595Z,21.30
2022-07-28T19:56:31.412Z,21.20
2022-07-28T19:59:00.364Z,21.20
2022-07-28T20:01:28.771Z,21.20
2022-07-28T20:04:02.431Z,21.10
2022-07-28T20:06:33.767Z,21.10
2022-07-28T20:09:04.101Z,21.10
2022-07-28T20:11:33.115Z,20.90
2022-07-28T20:14:03.571Z,21.00
2022-07-28T20:16:31.698Z,21.00
2022-07-28T20:18:59.653Z,21.10
2022-07-28T20:21:27.563Z,21.00
2022-07-28T20:23:57.354Z,20.90
2022-07-28T20:26:28.367Z,21.00
2022-07-28T20:28:58.615Z,21.00
2022-07-28T20:31:26.197Z,20.90
2022-07-28T20:33:54.415Z,20.80
2022-07-28T20:36:26.347Z,20.70
2022-07-28T20:38:57.596Z,20.80
2022-07-28T20:41:25.419Z,20.80
2022-07-28T20:44:18.444Z,20.80
2022-07-28T20:46:42.069Z,20.80
2022-07-28T20:49:10.317Z,20.80
2022-07-28T20:51:38.331Z,20.90
2022-07-28T20:54:06.597Z,20.90
2022-07-28T20:56:34.350Z,20.90
2022-07-28T20:59:06.796Z,20.80
2022-07-28T21:01:35.286Z,20.90
2022-07-28T21:04:02.913Z,20.90
2022-07-28T21:06:31.808Z,20.80
2022-07-28T21:09:01.995Z,20.90
2022-07-28T21:11:34.920Z,20.90
2022-07-28T21:14:03.326Z,20.80
2022-07-28T21:16:32.290Z,20.80
2022-07-28T21:19:02.159Z,20.80
2022-07-28T21:21:30.429Z,20.80
2022-07-28T21:23:58.414Z,20.70
2022-07-28T21:26:26.141Z,20.70
2022-07-28T21:29:12.671Z,20.60
2022-07-28T21:31:58.503Z,20.70
2022-07-28T21:34:34.349Z,20.80
2022-07-28T21:37:05.938Z,20.70
2022-07-28T21:39:35.894Z,20.60
2022-07-28T21:42:07.501Z,20.60
2022-07-28T21:44:45.551Z,20.50
2022-07-28T21:47:17.133Z,20.50
2022-07-28T21:49:45.116Z,20.50
2022-07-28T21:52:12.832Z,20.40
2022-07-28T21:54:40.396Z,20.50
2022-07-28T21:57:21.927Z,20.40
2022-07-28T21:59:53.928Z,20.40
2022-07-28T22:02:24.223Z,20.40
2022-07-28T22:04:53.859Z,20.30
2022-07-28T22:07:21.447Z,20.30
2022-07-28T22:09:51.004Z,20.20
2022-07-28T22:12:29.057Z,20.20
2022-07-28T22:15:05.577Z,20.20
2022-07-28T22:17:38.806Z,20.10
2022-07-28T22:20:11.514Z,20.10
2022-07-28T22:22:42.490Z,20.00
2022-07-28T22:25:10.804Z,20.10
2022-07-28T22:27:40.126Z,20.00
2022-07-28T22:30:13.061Z,20.00
2022-07-28T22:32:52.375Z,20.00
2022-07-28T22:35:29.434Z,20.00
2022-07-28T22:38:13.181Z,19.90
2022-07-28T22:40:44.481Z,19.80
2022-07-28T22:43:28.551Z,19.80
2022-07-28T22:46:11.276Z,19.70
2022-07-28T22:48:52.951Z,19.70
2022-07-28T22:51:29.826Z,19.60
2022-07-28T22:54:01.375Z,19.70
2022-07-28T22:56:34.746Z,19.60
2022-07-28T22:59:08.069Z,19.60
2022-07-28T23:01:44.639Z,19.60
2022-07-28T23:04:18.285Z,19.50
2022-07-28T23:06:52.213Z,19.50
2022-07-28T23:09:32.386Z,19.40
2022-07-28T23:12:09.367Z,19.40
2022-07-28T23:14:40.672Z,19.40
2022-07-28T23:17:13.662Z,19.40
2022-07-28T23:19:43.965Z,19.30
2022-07-28T23:22:13.786Z,19.30
2022-07-28T23:24:44.086Z,19.30
2022-07-28T23:27:13.358Z,19.30
2022-07-28T23:29:41.591Z,19.20
2022-07-28T23:32:13.839Z,19.20
2022-07-28T23:34:44.592Z,19.20
2022-07-28T23:37:13.766Z,19.10
2022-07-28T23:39:41.562Z,19.10
2022-07-28T23:42:10.595Z,19.00
2022-07-28T23:44:39.720Z,19.00
2022-07-28T23:47:08.026Z,19.00
2022-07-28T23:49:36.280Z,19.10
2022-07-28T23:52:04.301Z,19.00
2022-07-28T23:54:31.792Z,19.00
2022-07-28T23:56:59.866Z,18.90
2022-07-28T23:59:27.963Z,19.00
